createdAt,value
2022-11-26T00:03:49.569Z,5.21
2022-11-26T00:08:52.405Z,5.22
2022-11-26T00:13:57.185Z,5.19
2022-11-26T00:18:59.904Z,5.19
2022-11-26T00:24:03.035Z,5.21
2022-11-26T00:29:06.068Z,5.21
2022-11-26T00:34:08.679Z,5.17
2022-11-26T00:39:11.413Z,5.16
2022-11-26T00:44:14.086Z,5.09
2022-11-26T00:49:16.732Z,5.03
2022-11-26T00:54:19.523Z,5.07
2022-11-26T00:59:22.507Z,5.11
2022-11-26T01:04:25.206Z,5.23
2022-11-26T01:09:27.889Z,5.13
2022-11-26T01:14:30.569Z,5.14
2022-11-26T01:19:39.154Z,5.24
2022-11-26T01:24:41.884Z,5.12
2022-11-26T01:29:44.524Z,5.12
2022-11-26T01:34:47.146Z,5.05
2022-11-26T01:39:49.817Z,5.06
2022-11-26T01:44:52.529Z,5.05
2022-11-26T01:49:55.455Z,5.11
2022-11-26T01:54:58.463Z,5.09
2022-11-26T02:00:01.674Z,5.06
2022-11-26T02:05:04.304Z,5.09
2022-11-26T02:10:07.055Z,5.12
2022-11-26T02:15:09.890Z,5.15
2022-11-26T02:20:12.595Z,5.14
2022-11-26T02:25:15.300Z,5.14
2022-11-26T02:30:17.906Z,5.14
2022-11-26T02:35:20.491Z,5.13
2022-11-26T02:40:23.255Z,5.16
2022-11-26T02:45:26.013Z,5.17
2022-11-26T02:50:33.698Z,5.13
2022-11-26T02:55:36.916Z,5.05
2022-11-26T03:00:39.553Z,5.06
2022-11-26T03:05:42.296Z,5.10
2022-11-26T03:10:44.986Z,5.03
2022-11-26T03:15:48.135Z,5.05
2022-11-26T03:20:52.542Z,5.06
2022-11-26T03:25:55.332Z,5.05
2022-11-26T03:30:58.028Z,5.12
2022-11-26T03:36:03.263Z,5.10
2022-11-26T03:41:06.301Z,5.11
2022-11-26T03:46:09.097Z,5.10
2022-11-26T03:51:11.764Z,5.14
2022-11-26T03:56:15.590Z,5.10
2022-11-26T04:01:18.412Z,5.05
2022-11-26T04:06:21.589Z,5.04
2022-11-26T04:11:24.298Z,5.07
2022-11-26T04:16:27.240Z,5.07
2022-11-26T04:21:30.005Z,5.14
2022-11-26T04:26:33.120Z,5.04
2022-11-26T04:31:35.815Z,5.12
2022-11-26T04:36:39.478Z,5.12
2022-11-26T04:41:42.927Z,5.10
2022-11-26T04:46:45.615Z,5.19
2022-11-26T04:51:48.318Z,5.17
2022-11-26T04:56:50.967Z,5.15
2022-11-26T05:01:53.612Z,5.19
2022-11-26T05:06:56.188Z,5.19
2022-11-26T05:11:58.831Z,5.18
2022-11-26T05:17:01.484Z,5.24
2022-11-26T05:22:04.588Z,5.17
2022-11-26T05:27:07.189Z,5.12
2022-11-26T05:32:10.853Z,5.10
2022-11-26T05:37:13.507Z,5.06
2022-11-26T05:42:16.320Z,5.08
2022-11-26T05:47:18.938Z,5.15
2022-11-26T05:52:21.696Z,5.23
2022-11-26T05:57:24.243Z,5.30
2022-11-26T06:02:27.139Z,5.26
2022-11-26T06:07:30.001Z,5.22
2022-11-26T06:12:32.622Z,5.18
2022-11-26T06:17:35.185Z,5.28
2022-11-26T06:22:41.774Z,5.24
2022-11-26T06:27:44.403Z,5.24
2022-11-26T06:32:47.018Z,5.12
2022-11-26T06:37:50.104Z,5.06
2022-11-26T06:42:52.761Z,4.95
2022-11-26T06:47:55.384Z,4.89
2022-11-26T06:52:57.991Z,4.75
2022-11-26T06:58:00.794Z,4.74
2022-11-26T07:03:09.822Z,4.82
2022-11-26T07:08:12.524Z,4.81
2022-11-26T07:13:15.143Z,4.89
2022-11-26T07:18:17.796Z,4.93
2022-11-26T07:23:20.609Z,4.91
2022-11-26T07:28:23.466Z,4.98
2022-11-26T07:33:26.066Z,4.95
2022-11-26T07:38:28.691Z,5.00
2022-11-26T07:43:31.332Z,5.03
2022-11-26T07:48:33.988Z,5.04
2022-11-26T07:53:36.614Z,5.14
2022-11-26T07:58:39.273Z,5.25
2022-11-26T08:03:41.911Z,5.26
2022-11-26T08:08:44.541Z,5.28
2022-11-26T08:13:47.244Z,5.18
2022-11-26T08:18:50.413Z,5.30
2022-11-26T08:23:53.046Z,5.46
2022-11-26T08:28:55.778Z,5.65
2022-11-26T08:33:58.934Z,5.57
2022-11-26T08:39:01.565Z,5.65
2022-11-26T08:44:07.069Z,5.80
2022-11-26T08:49:10.715Z,6.18
2022-11-26T08:54:13.416Z,6.40
2022-11-26T08:59:17.502Z,6.57
2022-11-26T09:04:20.976Z,6.52
2022-11-26T09:09:23.987Z,6.90
2022-11-26T09:14:33.027Z,7.10
2022-11-26T09:19:35.808Z,7.08
2022-11-26T09:24:38.777Z,7.05
2022-11-26T09:29:41.604Z,7.10
2022-11-26T09:34:44.228Z,7.06
2022-11-26T09:39:48.095Z,7.20
2022-11-26T09:44:50.826Z,6.98
2022-11-26T09:49:54.003Z,6.82
2022-11-26T09:54:57.000Z,6.98
2022-11-26T09:59:59.599Z,7.02
2022-11-26T10:05:02.736Z,6.94
2022-11-26T10:10:05.373Z,7.13
2022-11-26T10:15:08.066Z,7.11
2022-11-26T10:20:10.793Z,7.01
2022-11-26T10:25:13.479Z,7.06
2022-11-26T10:30:16.408Z,7.11
2022-11-26T10:35:19.004Z,7.13
2022-11-26T10:40:21.966Z,7.12
2022-11-26T10:45:24.639Z,7.03
2022-11-26T10:55:52.987Z,6.73
2022-11-26T11:00:55.748Z,6.82
2022-11-26T11:06:03.873Z,6.63
2022-11-26T11:11:06.535Z,6.86
2022-11-26T11:16:09.308Z,6.88
2022-11-26T11:21:12.110Z,6.99
2022-11-26T11:26:14.775Z,6.84
2022-11-26T11:31:17.504Z,7.11
2022-11-26T11:36:20.206Z,7.09
2022-11-26T11:41:22.922Z,7.30
2022-11-26T11:46:25.970Z,7.13
2022-11-26T11:51:31.910Z,7.19
2022-11-26T11:56:34.573Z,6.73
2022-11-26T12:01:37.311Z,6.86
2022-11-26T12:06:40.313Z,7.11
2022-11-26T12:11:42.953Z,7.34
2022-11-26T12:16:48.105Z,7.49
2022-11-26T12:21:50.888Z,7.55
2022-11-26T12:26:53.505Z,7.69
2022-11-26T12:31:56.239Z,7.43
2022-11-26T12:36:59.463Z,7.25
2022-11-26T12:42:02.153Z,6.84
2022-11-26T12:47:04.956Z,6.80
2022-11-26T12:52:07.926Z,6.74
2022-11-26T12:57:10.719Z,6.59
2022-11-26T13:02:13.543Z,6.54
2022-11-26T13:07:16.836Z,6.50
2022-11-26T13:12:19.625Z,6.83
2022-11-26T13:17:23.154Z,6.70
2022-11-26T13:22:25.929Z,6.98
2022-11-26T13:27:28.574Z,6.75
2022-11-26T13:32:31.237Z,6.86
2022-11-26T13:37:33.977Z,6.91
2022-11-26T13:42:38.149Z,6.59
2022-11-26T13:47:40.943Z,6.38
2022-11-26T13:52:43.873Z,6.40
2022-11-26T13:57:46.676Z,6.45
2022-11-26T14:02:49.516Z,6.42
2022-11-26T14:07:52.365Z,6.22
2022-11-26T14:12:55.416Z,5.98
2022-11-26T14:17:58.178Z,5.60
2022-11-26T14:23:04.722Z,5.45
2022-11-26T14:28:08.596Z,5.27
2022-11-26T14:33:11.215Z,5.17
2022-11-26T14:38:13.839Z,5.10
2022-11-26T14:43:17.279Z,5.02
2022-11-26T14:48:26.728Z,4.81
2022-11-26T14:53:29.330Z,4.65
2022-11-26T14:58:32.065Z,4.56
2022-11-26T15:03:34.844Z,4.49
2022-11-26T15:08:37.522Z,4.43
2022-11-26T15:13:40.226Z,4.25
2022-11-26T15:18:42.828Z,4.17
2022-11-26T15:23:45.446Z,4.03
2022-11-26T15:28:48.106Z,3.99
2022-11-26T15:33:51.606Z,3.89
2022-11-26T15:38:54.227Z,3.84
2022-11-26T15:43:56.840Z,3.76
2022-11-26T15:48:59.939Z,3.64
2022-11-26T15:54:02.589Z,3.66
2022-11-26T15:59:05.259Z,3.54
2022-11-26T16:04:08.001Z,3.52
2022-11-26T16:09:13.637Z,3.45
2022-11-26T16:14:20.453Z,3.32
2022-11-26T16:19:23.164Z,3.25
2022-11-26T16:24:27.180Z,3.13
2022-11-26T16:29:29.906Z,3.12
2022-11-26T16:34:33.017Z,3.08
2022-11-26T16:39:40.500Z,3.03
2022-11-26T16:44:43.998Z,2.98
2022-11-26T16:49:47.246Z,2.91
2022-11-26T16:54:52.524Z,2.79
2022-11-26T16:59:55.858Z,2.69
2022-11-26T17:04:59.455Z,2.59
2022-11-26T17:10:02.529Z,2.46
2022-11-26T17:15:05.825Z,2.54
2022-11-26T17:20:09.520Z,2.50
2022-11-26T17:25:12.832Z,2.50
2022-11-26T17:30:16.056Z,2.54
2022-11-26T17:35:19.157Z,2.52
2022-11-26T17:40:22.548Z,2.60
2022-11-26T17:45:26.456Z,2.58
2022-11-26T17:50:29.547Z,2.52
2022-11-26T17:55:32.711Z,2.49
2022-11-26T18:00:35.780Z,2.50
2022-11-26T18:05:41.977Z,2.41
2022-11-26T18:10:45.631Z,2.50
2022-11-26T18:15:48.891Z,2.42
2022-11-26T18:20:51.987Z,2.31
2022-11-26T18:25:55.062Z,2.20
2022-11-26T18:30:58.334Z,2.15
2022-11-26T18:36:01.612Z,2.15
2022-11-26T18:41:06.429Z,2.08
2022-11-26T18:46:11.145Z,2.11
2022-11-26T18:51:14.330Z,2.07
2022-11-26T18:56:17.520Z,2.02
2022-11-26T19:01:20.772Z,1.95
2022-11-26T19:06:23.920Z,1.90
2022-11-26T19:11:27.858Z,1.87
2022-11-26T19:16:31.059Z,1.83
2022-11-26T19:21:34.271Z,1.90
2022-11-26T19:26:37.367Z,1.81
2022-11-26T19:31:40.439Z,1.85
2022-11-26T19:36:47.944Z,1.82
2022-11-26T19:41:51.614Z,1.74
2022-11-26T19:46:54.287Z,1.68
2022-11-26T19:51:57.544Z,1.58
2022-11-26T19:57:00.937Z,1.61
2022-11-26T20:02:04.327Z,1.68
2022-11-26T20:07:07.753Z,1.69
2022-11-26T20:12:10.976Z,1.53
2022-11-26T20:17:14.546Z,1.55
2022-11-26T20:22:18.228Z,1.52
2022-11-26T20:27:21.408Z,1.40
2022-11-26T20:32:25.033Z,1.37
2022-11-26T20:37:28.219Z,1.34
2022-11-26T20:42:31.510Z,1.31
2022-11-26T20:47:35.455Z,1.33
2022-11-26T20:52:38.790Z,1.25
2022-11-26T20:57:42.369Z,1.32
2022-11-26T21:02:47.688Z,1.44
2022-11-26T21:07:52.012Z,1.54
2022-11-26T21:12:55.331Z,1.41
2022-11-26T21:17:58.472Z,1.43
2022-11-26T21:23:02.156Z,1.39
2022-11-26T21:28:05.314Z,1.31
2022-11-26T21:33:09.629Z,1.30
2022-11-26T21:38:13.103Z,1.17
2022-11-26T21:43:16.285Z,1.14
2022-11-26T21:48:19.412Z,1.01
2022-11-26T21:53:22.577Z,0.95
2022-11-26T21:58:28.052Z,0.96
2022-11-26T22:03:31.169Z,1.01
2022-11-26T22:08:34.332Z,1.01
2022-11-26T22:13:37.741Z,1.03
2022-11-26T22:18:40.955Z,1.03
2022-11-26T22:23:44.755Z,1.01
2022-11-26T22:28:47.900Z,0.98
2022-11-26T22:33:51.533Z,0.97
2022-11-26T22:38:54.657Z,0.94
2022-11-26T22:43:57.780Z,0.91
2022-11-26T22:49:00.925Z,0.84
2022-11-26T22:54:04.008Z,0.82
2022-11-26T22:59:07.176Z,0.76
2022-11-26T23:04:10.395Z,0.80
2022-11-26T23:09:13.615Z,0.68
2022-11-26T23:14:16.369Z,0.71
2022-11-26T23:19:19.489Z,0.66
2022-11-26T23:24:22.519Z,0.66
2022-11-26T23:29:25.353Z,0.63
2022-11-26T23:34:28.080Z,0.65
2022-11-26T23:39:30.822Z,0.58
2022-11-26T23:44:34.037Z,0.53
2022-11-26T23:49:36.947Z,0.49
2022-11-26T23:54:40.469Z,0.48
2022-11-26T23:59:43.227Z,0.35
